Time;durP1;ratioP1;P1;durP2;ratioP2;P2;SDS_P1;SDS_P2;PMS_P1;PMS_P2;Temp;Humidity;BMP_temperature;BMP_pressure;BME280_temperature;BME280_humidity;BME280_pressure;Samples;Min_cycle;Max_cycle;Signal;HPM_P1;HPM_P2
2023/09/27 00:00:57;;;;;;;5.57;4.85;;;;;;;14.32;100.00;101487.88;5024798;28;20040;-60
2023/09/27 00:03:22;;;;;;;10.35;5.90;;;;;;;14.28;100.00;101486.19;5037445;28;20031;-60
2023/09/27 00:05:47;;;;;;;8.48;5.85;;;;;;;14.21;100.00;101478.50;5035100;28;20393;-60
2023/09/27 00:08:13;;;;;;;8.20;5.47;;;;;;;14.17;100.00;101474.19;5036262;28;20083;-60
2023/09/27 00:10:38;;;;;;;8.88;6.20;;;;;;;14.13;100.00;101473.34;5040444;28;20116;-60
2023/09/27 00:13:03;;;;;;;7.82;6.05;;;;;;;14.11;100.00;101470.78;5032178;28;20513;-60
2023/09/27 00:15:30;;;;;;;10.93;6.63;;;;;;;14.11;100.00;101468.19;5039930;28;20060;-60
2023/09/27 00:17:56;;;;;;;8.27;5.47;;;;;;;14.10;100.00;101469.06;5037742;28;20566;-60
2023/09/27 00:20:21;;;;;;;7.90;5.40;;;;;;;14.09;100.00;101463.91;5030832;28;20041;-60
2023/09/27 00:22:47;;;;;;;8.60;7.03;;;;;;;14.13;100.00;101467.31;5037964;28;20033;-60
2023/09/27 00:25:14;;;;;;;9.05;7.90;;;;;;;14.15;100.00;101468.16;5034752;28;20196;-60
2023/09/27 00:27:39;;;;;;;8.02;6.28;;;;;;;14.12;100.00;101476.84;5035888;28;20481;-61
2023/09/27 00:30:09;;;;;;;6.53;5.85;;;;;;;14.08;100.00;101475.16;5036371;28;20032;-60
2023/09/27 00:32:35;;;;;;;7.75;5.78;;;;;;;14.05;100.00;101468.25;5038139;28;20547;-60
2023/09/27 00:35:01;;;;;;;8.13;6.22;;;;;;;14.03;100.00;101466.56;5033562;28;20045;-60
2023/09/27 00:37:27;;;;;;;9.55;6.10;;;;;;;13.97;100.00;101466.63;5035822;28;20033;-60
2023/09/27 00:39:52;;;;;;;6.93;6.07;;;;;;;13.91;100.00;101475.34;5036255;28;20049;-60
2023/09/27 00:42:17;;;;;;;7.03;6.30;;;;;;;13.87;100.00;101471.06;5031500;28;20529;-60
2023/09/27 00:44:44;;;;;;;7.18;6.00;;;;;;;13.85;100.00;101462.44;5035266;28;20045;-61
2023/09/27 00:47:09;;;;;;;7.18;5.53;;;;;;;13.83;100.00;101458.13;5027786;28;20043;-60
2023/09/27 00:49:35;;;;;;;9.73;7.15;;;;;;;13.75;100.00;101471.19;5038328;28;20649;-60
2023/09/27 00:52:01;;;;;;;9.90;7.28;;;;;;;13.74;100.00;101479.00;5026592;28;20080;-60
2023/09/27 00:54:27;;;;;;;8.50;6.30;;;;;;;13.71;100.00;101482.47;5038496;28;20027;-61
2023/09/27 00:56:53;;;;;;;7.55;6.30;;;;;;;13.68;100.00;101477.34;5039127;28;20047;-61
2023/09/27 00:59:19;;;;;;;8.20;6.35;;;;;;;13.65;100.00;101486.88;5031392;28;20037;-61
2023/09/27 01:01:46;;;;;;;9.13;6.88;;;;;;;13.64;100.00;101492.94;5034541;28;20078;-61
2023/09/27 01:04:13;;;;;;;6.90;6.03;;;;;;;13.63;100.00;101497.28;5029103;28;20119;-61
2023/09/27 01:06:40;;;;;;;7.28;6.53;;;;;;;13.64;100.00;101503.34;5031321;28;20032;-63
2023/09/27 01:09:05;;;;;;;7.57;6.22;;;;;;;13.62;100.00;101507.69;5035973;28;20033;-62
2023/09/27 01:11:30;;;;;;;8.77;6.60;;;;;;;13.61;100.00;101506.84;5038465;28;20036;-61
2023/09/27 01:13:56;;;;;;;7.88;6.40;;;;;;;13.59;100.00;101508.59;5032183;28;20723;-62
2023/09/27 01:16:21;;;;;;;7.15;5.70;;;;;;;13.57;100.00;101510.31;5026597;28;20033;-61
2023/09/27 01:18:46;;;;;;;7.40;6.15;;;;;;;13.56;100.00;101506.03;5033127;28;20033;-61
2023/09/27 01:21:12;;;;;;;10.30;6.78;;;;;;;13.52;100.00;101507.78;5035875;28;20036;-61
2023/09/27 01:23:40;;;;;;;11.13;8.65;;;;;;;13.48;100.00;101508.66;5039184;28;20040;-61
2023/09/27 01:26:07;;;;;;;11.68;8.50;;;;;;;13.45;100.00;101508.69;5032808;28;20068;-61
2023/09/27 01:28:33;;;;;;;10.95;7.85;;;;;;;13.42;100.00;101503.53;5037929;28;20047;-61
2023/09/27 01:30:58;;;;;;;9.07;7.55;;;;;;;13.38;100.00;101509.63;5031378;28;20511;-61
2023/09/27 01:33:25;;;;;;;10.43;7.40;;;;;;;13.35;100.00;101501.00;5033370;28;20036;-61
2023/09/27 01:35:51;;;;;;;10.30;7.75;;;;;;;13.31;100.00;101509.69;5037476;28;20491;-62
2023/09/27 01:38:16;;;;;;;8.50;7.20;;;;;;;13.31;100.00;101512.28;5034312;28;20152;-61
2023/09/27 01:40:44;;;;;;;7.50;6.70;;;;;;;13.31;100.00;101522.66;5035942;28;20029;-62
2023/09/27 01:43:10;;;;;;;8.15;6.90;;;;;;;13.30;100.00;101521.78;5030085;28;20057;-62
2023/09/27 01:45:36;;;;;;;9.15;7.18;;;;;;;13.29;100.00;101524.41;5030109;28;20395;-61
2023/09/27 01:48:02;;;;;;;10.05;7.90;;;;;;;13.25;100.00;101523.56;5031545;28;20117;-62
2023/09/27 01:50:32;;;;;;;10.43;7.70;;;;;;;13.20;100.00;101514.09;5037146;28;20458;-62
2023/09/27 01:52:57;;;;;;;9.45;7.85;;;;;;;13.17;100.00;101507.19;5025308;28;20060;-62
2023/09/27 01:55:24;;;;;;;11.32;7.22;;;;;;;13.15;100.00;101500.31;5034104;28;20049;-61
2023/09/27 01:57:50;;;;;;;12.55;9.35;;;;;;;13.13;100.00;101510.69;5034933;28;20033;-62
2023/09/27 02:00:17;;;;;;;11.52;8.45;;;;;;;13.12;100.00;101508.94;5030858;28;20436;-62
2023/09/27 02:03:03;;;;;;;9.07;7.20;;;;;;;13.11;100.00;101519.34;5034866;28;20037;-61
2023/09/27 02:05:30;;;;;;;9.82;8.10;;;;;;;13.12;100.00;101532.31;5033062;28;20036;-61
2023/09/27 02:07:56;;;;;;;8.65;7.35;;;;;;;13.13;100.00;101527.97;5036006;28;20048;-61
2023/09/27 02:10:22;;;;;;;11.32;8.13;;;;;;;13.13;100.00;101525.38;5023731;28;20048;-61
2023/09/27 02:12:48;;;;;;;9.75;7.32;;;;;;;13.12;100.00;101519.31;5034107;28;20037;-61
2023/09/27 02:15:15;;;;;;;9.40;7.30;;;;;;;13.09;100.00;101518.50;5040710;28;20033;-61
2023/09/27 02:17:42;;;;;;;9.40;7.18;;;;;;;13.07;100.00;101526.28;5041470;28;20064;-61
2023/09/27 02:20:10;;;;;;;8.10;6.80;;;;;;;13.00;100.00;101529.78;5039542;28;20036;-61
2023/09/27 02:22:42;;;;;;;9.23;6.32;;;;;;;12.96;100.00;101522.88;5037891;28;20072;-61
2023/09/27 02:25:10;;;;;;;9.15;7.85;;;;;;;12.93;100.00;101528.09;5037736;28;20124;-61
2023/09/27 02:27:39;;;;;;;10.40;7.40;;;;;;;12.93;100.00;101526.34;5038049;28;20037;-61
2023/09/27 02:30:11;;;;;;;9.13;6.80;;;;;;;12.90;100.00;101518.59;5032034;28;20080;-61
2023/09/27 02:32:36;;;;;;;8.73;7.32;;;;;;;12.88;100.00;101519.47;5039958;28;20037;-61
2023/09/27 02:35:02;;;;;;;8.70;7.60;;;;;;;12.86;100.00;101522.06;5034795;28;20041;-61
2023/09/27 02:37:27;;;;;;;9.68;7.32;;;;;;;12.82;100.00;101527.28;5039841;28;20059;-62
2023/09/27 02:39:53;;;;;;;10.30;7.68;;;;;;;12.78;100.00;101529.03;5034760;28;20029;-61
2023/09/27 02:42:18;;;;;;;9.63;7.60;;;;;;;12.75;100.00;101526.44;5035146;28;20033;-61
2023/09/27 02:44:43;;;;;;;9.25;7.03;;;;;;;12.73;100.00;101533.34;5043440;28;20288;-61
2023/09/27 02:47:09;;;;;;;13.40;7.93;;;;;;;12.70;100.00;101537.72;5029402;28;20172;-62
2023/09/27 02:49:35;;;;;;;9.52;7.85;;;;;;;12.69;100.00;101541.19;5035234;28;20041;-59
2023/09/27 02:52:00;;;;;;;9.63;6.72;;;;;;;12.65;100.00;101536.88;5039861;28;20055;-60
2023/09/27 02:54:25;;;;;;;9.73;7.43;;;;;;;12.64;100.00;101527.38;5039415;28;20619;-60
2023/09/27 02:56:51;;;;;;;12.93;9.25;;;;;;;12.64;100.00;101524.78;5040492;28;20457;-60
2023/09/27 02:59:16;;;;;;;10.55;8.10;;;;;;;12.62;100.00;101521.31;5032563;28;20025;-60
2023/09/27 03:01:41;;;;;;;13.38;8.65;;;;;;;12.62;100.00;101519.59;5038499;28;20747;-60
2023/09/27 03:04:08;;;;;;;10.10;8.18;;;;;;;12.60;100.00;101515.28;5037195;28;20107;-60
2023/09/27 03:06:38;;;;;;;12.88;9.48;;;;;;;12.64;100.00;101509.22;5036722;28;20029;-60
2023/09/27 03:09:04;;;;;;;10.35;7.97;;;;;;;12.62;100.00;101509.22;5035554;28;20100;-60
2023/09/27 03:11:29;;;;;;;10.80;9.27;;;;;;;12.61;100.00;101512.69;5039528;28;20064;-60
2023/09/27 03:13:55;;;;;;;12.23;8.80;;;;;;;12.63;100.00;101508.34;5040538;28;20060;-60
2023/09/27 03:16:21;;;;;;;14.48;11.07;;;;;;;12.68;100.00;101506.59;5038746;28;20033;-60
2023/09/27 03:18:46;;;;;;;15.27;11.05;;;;;;;12.77;100.00;101498.75;5040861;28;20036;-60
2023/09/27 03:21:12;;;;;;;14.38;11.27;;;;;;;12.80;100.00;101497.88;5036697;28;20025;-60
2023/09/27 03:23:37;;;;;;;12.98;11.13;;;;;;;12.75;100.00;101502.25;5039147;28;20156;-60
2023/09/27 03:26:04;;;;;;;12.30;9.85;;;;;;;12.71;100.00;101495.34;5030691;28;20408;-60
2023/09/27 03:28:30;;;;;;;14.35;11.05;;;;;;;12.71;100.00;101491.00;5035432;28;20044;-60
2023/09/27 03:30:55;;;;;;;17.65;11.65;;;;;;;12.74;100.00;101491.00;5040053;28;20028;-60
2023/09/27 03:33:21;;;;;;;13.70;11.30;;;;;;;12.75;100.00;101478.91;5039113;28;20044;-60
2023/09/27 03:35:46;;;;;;;16.52;11.15;;;;;;;12.70;100.00;101478.06;5038796;28;20063;-65
2023/09/27 03:38:12;;;;;;;14.70;11.60;;;;;;;12.66;100.00;101491.91;5026517;28;20056;-64
2023/09/27 03:40:40;;;;;;;14.20;10.20;;;;;;;12.63;100.00;101500.56;5032533;28;20082;-64
2023/09/27 03:43:05;;;;;;;11.55;9.35;;;;;;;12.61;100.00;101501.47;5031357;28;20585;-64
2023/09/27 03:45:34;;;;;;;14.20;11.32;;;;;;;12.63;100.00;101497.97;5031346;28;20038;-64
2023/09/27 03:47:59;;;;;;;15.35;12.57;;;;;;;12.67;100.00;101498.84;5032472;28;20037;-65
2023/09/27 03:50:25;;;;;;;17.58;13.93;;;;;;;12.71;100.00;101495.34;5039338;28;20094;-64
2023/09/27 03:52:50;;;;;;;16.63;12.65;;;;;;;12.70;100.00;101493.63;5028555;28;20515;-65
2023/09/27 03:55:16;;;;;;;17.75;12.90;;;;;;;12.72;100.00;101502.25;5037379;28;20530;-65
2023/09/27 03:57:41;;;;;;;17.85;13.43;;;;;;;12.74;100.00;101506.56;5041495;28;20036;-63
2023/09/27 04:00:17;;;;;;;17.50;13.65;;;;;;;12.76;100.00;101514.34;5034924;28;20030;-64
2023/09/27 04:02:44;;;;;;;15.63;12.60;;;;;;;12.76;100.00;101519.53;5032412;28;20029;-65
2023/09/27 04:05:10;;;;;;;18.20;12.23;;;;;;;12.76;100.00;101520.38;5027108;28;20655;-65
2023/09/27 04:07:35;;;;;;;14.32;11.60;;;;;;;12.75;100.00;101515.22;5034708;28;20147;-65
2023/09/27 04:10:04;;;;;;;14.45;11.25;;;;;;;12.72;100.00;101517.81;5039946;28;20047;-63
2023/09/27 04:12:30;;;;;;;16.75;11.40;;;;;;;12.68;100.00;101508.31;5036265;28;20453;-63
2023/09/27 04:14:56;;;;;;;14.98;11.30;;;;;;;12.62;100.00;101500.56;5038565;28;20115;-64
2023/09/27 04:17:22;;;;;;;13.18;11.02;;;;;;;12.57;100.00;101492.81;5038417;28;20511;-66
2023/09/27 04:19:50;;;;;;;16.50;10.70;;;;;;;12.54;100.00;101490.25;5034354;28;20072;-65
2023/09/27 04:22:15;;;;;;;13.30;11.02;;;;;;;12.54;100.00;101492.84;5028509;28;20036;-65
2023/09/27 04:24:41;;;;;;;15.00;10.93;;;;;;;12.52;100.00;101497.19;5030582;28;20368;-64
2023/09/27 04:27:06;;;;;;;13.45;11.25;;;;;;;12.55;100.00;101496.28;5032518;28;20086;-65
2023/09/27 04:29:31;;;;;;;14.95;11.63;;;;;;;12.56;100.00;101491.09;5037719;28;20048;-65
2023/09/27 04:31:57;;;;;;;14.70;11.40;;;;;;;12.56;100.00;101485.91;5028214;28;20067;-65
2023/09/27 04:34:23;;;;;;;13.75;10.60;;;;;;;12.54;100.00;101484.19;5032683;28;20039;-65
2023/09/27 04:36:50;;;;;;;12.57;9.77;;;;;;;12.51;100.00;101485.06;5033326;28;20396;-65
2023/09/27 04:39:18;;;;;;;15.75;10.05;;;;;;;12.51;100.00;101487.66;5039167;28;20059;-66
2023/09/27 04:41:46;;;;;;;19.73;13.10;;;;;;;12.51;100.00;101485.06;5031018;28;20041;-65
2023/09/27 04:44:14;;;;;;;18.30;13.55;;;;;;;12.53;100.00;101488.50;5032934;28;20025;-65
2023/09/27 04:46:40;;;;;;;15.13;11.88;;;;;;;12.56;100.00;101493.69;5028196;28;20041;-65
2023/09/27 04:49:05;;;;;;;15.75;11.00;;;;;;;12.51;100.00;101489.38;5025986;28;20103;-64
2023/09/27 04:51:31;;;;;;;13.15;11.18;;;;;;;12.50;100.00;101487.66;5031305;28;20224;-64
2023/09/27 04:54:02;;;;;;;12.63;11.15;;;;;;;12.50;100.00;101488.53;5026648;28;20834;-64
2023/09/27 04:56:29;;;;;;;18.15;13.05;;;;;;;12.55;100.00;101488.53;5036406;28;20147;-64
2023/09/27 04:58:55;;;;;;;14.73;12.02;;;;;;;12.53;100.00;101505.78;5028849;28;20034;-65
2023/09/27 05:01:20;;;;;;;13.88;10.90;;;;;;;12.52;100.00;101499.78;5026030;28;20034;-65
2023/09/27 05:03:45;;;;;;;12.85;10.20;;;;;;;12.50;100.00;101503.22;5028685;28;20031;-64
2023/09/27 05:06:11;;;;;;;14.52;11.02;;;;;;;12.50;100.00;101516.19;5027271;28;20033;-65
2023/09/27 05:08:36;;;;;;;11.07;9.48;;;;;;;12.48;100.00;101511.00;5025953;28;20029;-65
2023/09/27 05:11:01;;;;;;;12.93;10.95;;;;;;;12.46;100.00;101510.16;5036147;28;20049;-65
2023/09/27 05:13:27;;;;;;;10.93;9.57;;;;;;;12.46;100.00;101507.56;5035631;28;20040;-62
2023/09/27 05:15:52;;;;;;;14.00;11.88;;;;;;;12.44;100.00;101509.28;5035156;28;20112;-62
2023/09/27 05:18:19;;;;;;;16.42;12.27;;;;;;;12.43;100.00;101508.44;5033576;28;20101;-62
2023/09/27 05:20:44;;;;;;;17.00;12.43;;;;;;;12.40;100.00;101507.59;5031309;28;20044;-62
2023/09/27 05:23:10;;;;;;;17.65;12.63;;;;;;;12.43;100.00;101498.06;5038729;28;20034;-62
2023/09/27 05:25:36;;;;;;;16.17;12.45;;;;;;;12.42;100.00;101501.53;5037133;28;20073;-62
2023/09/27 05:28:02;;;;;;;16.55;12.52;;;;;;;12.38;100.00;101492.03;5038652;28;20025;-62
2023/09/27 05:30:27;;;;;;;13.00;10.95;;;;;;;12.36;100.00;101490.31;5035900;28;20083;-62
2023/09/27 05:32:53;;;;;;;15.65;10.57;;;;;;;12.35;100.00;101504.16;5036808;28;20037;-63
2023/09/27 05:35:18;;;;;;;14.82;10.15;;;;;;;12.37;100.00;101508.47;5033965;28;20033;-62
2023/09/27 05:37:44;;;;;;;17.08;11.95;;;;;;;12.46;100.00;101510.16;5040630;28;20045;-62
2023/09/27 05:40:10;;;;;;;22.17;13.85;;;;;;;12.52;100.00;101504.09;5037298;28;21698;-69
2023/09/27 05:42:37;;;;;;;15.93;11.88;;;;;;;12.56;100.00;101509.25;5034421;28;20403;-70
2023/09/27 05:45:04;;;;;;;14.07;10.85;;;;;;;12.58;100.00;101514.44;5033117;28;20029;-70
2023/09/27 05:47:29;;;;;;;18.13;12.27;;;;;;;12.62;100.00;101513.53;5029504;28;20040;-70
2023/09/27 05:49:55;;;;;;;17.13;11.13;;;;;;;12.65;100.00;101514.38;5029708;28;20038;-70
2023/09/27 05:52:20;;;;;;;16.77;11.95;;;;;;;12.73;100.00;101519.56;5039351;28;20071;-69
2023/09/27 05:54:46;;;;;;;24.92;12.52;;;;;;;12.80;100.00;101523.81;5035978;28;20102;-69
2023/09/27 05:57:11;;;;;;;18.52;13.35;;;;;;;12.87;100.00;101521.19;5042806;28;20057;-70
2023/09/27 05:59:40;;;;;;;18.05;13.75;;;;;;;12.93;100.00;101504.72;5036058;28;20036;-70
2023/09/27 06:02:06;;;;;;;18.70;12.88;;;;;;;12.96;100.00;101495.19;5039107;28;20033;-70
2023/09/27 06:04:32;;;;;;;17.67;12.23;;;;;;;13.08;100.00;101493.41;5038901;28;20634;-69
2023/09/27 06:06:58;;;;;;;15.32;13.23;;;;;;;13.17;100.00;101491.63;5028195;28;20048;-70
2023/09/27 06:09:24;;;;;;;19.45;14.23;;;;;;;13.27;100.00;101487.19;5033105;28;20642;-69
2023/09/27 06:11:49;;;;;;;17.75;13.80;;;;;;;13.35;100.00;101499.28;5030749;28;20479;-69
2023/09/27 06:14:15;;;;;;;16.58;13.05;;;;;;;13.45;100.00;101503.50;5036716;28;20036;-70
2023/09/27 06:16:42;;;;;;;14.07;12.43;;;;;;;13.53;100.00;101504.28;5033630;28;20044;-62
2023/09/27 06:19:09;;;;;;;18.10;12.93;;;;;;;13.66;100.00;101501.59;5035039;28;20516;-62
2023/09/27 06:21:35;;;;;;;18.25;14.32;;;;;;;13.76;100.00;101504.09;5032950;28;20064;-63
2023/09/27 06:24:00;;;;;;;18.90;13.82;;;;;;;13.88;100.00;101506.56;5032017;28;20037;-63
2023/09/27 06:26:26;;;;;;;17.25;11.70;;;;;;;14.01;100.00;101507.28;5037152;28;20044;-62
2023/09/27 06:28:51;;;;;;;18.42;13.73;;;;;;;14.10;100.00;101523.66;5032587;28;20038;-63
2023/09/27 06:31:17;;;;;;;15.32;13.45;;;;;;;14.20;100.00;101528.75;5041702;28;20589;-62
2023/09/27 06:33:46;;;;;;;14.90;10.98;;;;;;;14.24;100.00;101548.66;5023523;28;20033;-62
2023/09/27 06:36:11;;;;;;;13.57;11.13;;;;;;;14.32;100.00;101546.81;5038493;28;20766;-62
2023/09/27 06:38:37;;;;;;;17.73;12.10;;;;;;;14.32;100.00;101541.63;5032066;28;20086;-62
2023/09/27 06:41:03;;;;;;;18.60;11.85;;;;;;;14.35;100.00;101539.00;5034859;28;20583;-62
2023/09/27 06:43:31;;;;;;;17.67;11.73;;;;;;;14.42;100.00;101538.09;5038397;28;20029;-62
2023/09/27 06:45:56;;;;;;;22.45;12.32;;;;;;;14.43;100.00;101530.25;5024286;28;20029;-62
2023/09/27 06:48:23;;;;;;;21.45;12.20;;;;;;;14.48;100.00;101522.41;5029944;28;20036;-62
2023/09/27 06:50:49;;;;;;;20.65;12.65;;;;;;;14.48;100.00;101518.03;5029800;28;20040;-62
2023/09/27 06:53:15;;;;;;;14.30;12.50;;;;;;;14.52;100.00;101521.47;5037756;28;20026;-62
2023/09/27 06:55:41;;;;;;;19.23;12.45;;;;;;;14.55;100.00;101517.09;5034700;28;20132;-62
2023/09/27 06:58:07;;;;;;;16.23;11.73;;;;;;;14.65;100.00;101531.72;5034731;28;20068;-62
2023/09/27 07:00:32;;;;;;;17.50;11.30;;;;;;;14.71;100.00;101533.38;5030377;28;20060;-62
2023/09/27 07:02:58;;;;;;;21.13;12.50;;;;;;;14.76;100.00;101530.69;5035217;28;20508;-62
2023/09/27 07:05:26;;;;;;;17.05;12.38;;;;;;;14.80;100.00;101530.66;5038743;28;20037;-63
2023/09/27 07:07:53;;;;;;;18.85;11.32;;;;;;;14.82;100.00;101522.81;5036742;28;20064;-65
2023/09/27 07:10:19;;;;;;;16.15;11.15;;;;;;;14.88;100.00;101523.59;5033687;28;20040;-64
2023/09/27 07:12:46;;;;;;;13.95;11.18;;;;;;;14.95;100.00;101540.00;5032561;28;20036;-64
2023/09/27 07:15:13;;;;;;;17.08;11.90;;;;;;;15.00;100.00;101531.22;5038302;28;20114;-65
2023/09/27 07:17:43;;;;;;;14.43;11.40;;;;;;;15.07;100.00;101532.00;5033779;28;20094;-65
2023/09/27 07:20:32;;;;;;;18.52;11.48;;;;;;;15.16;100.00;101526.66;5032350;28;20056;-65
2023/09/27 07:22:58;;;;;;;14.60;11.05;;;;;;;15.23;100.00;101525.66;5033621;28;20037;-65
2023/09/27 07:25:24;;;;;;;17.10;11.50;;;;;;;15.34;100.00;101518.56;5032349;28;20033;-65
2023/09/27 07:27:52;;;;;;;15.48;12.38;;;;;;;15.47;100.00;101519.22;5038969;28;20041;-64
2023/09/27 07:30:20;;;;;;;19.10;11.68;;;;;;;15.59;100.00;101506.84;5035934;28;20067;-69
2023/09/27 07:32:46;;;;;;;15.70;11.43;;;;;;;15.71;100.00;101505.81;5035867;28;20044;-65
2023/09/27 07:35:14;;;;;;;14.55;11.18;;;;;;;15.74;100.00;101506.63;5041806;28;20079;-64
2023/09/27 07:37:40;;;;;;;17.52;10.60;;;;;;;15.79;100.00;101508.28;5058022;28;20248;-65
2023/09/27 07:40:09;;;;;;;15.07;10.95;;;;;;;15.88;100.00;101505.53;5060119;28;20081;-64
2023/09/27 07:42:35;;;;;;;14.05;10.90;;;;;;;15.95;100.00;101510.59;5057757;28;20025;-64
2023/09/27 07:45:01;;;;;;;15.63;10.57;;;;;;;16.02;100.00;101519.16;5055641;28;20038;-64
2023/09/27 07:47:27;;;;;;;14.82;9.60;;;;;;;16.09;100.00;101523.34;5036217;28;20033;-65
2023/09/27 07:49:52;;;;;;;14.77;8.80;;;;;;;16.21;100.00;101529.19;5037186;28;20064;-65
2023/09/27 07:52:18;;;;;;;10.63;8.93;;;;;;;16.25;99.15;101530.00;5043840;28;20112;-64
2023/09/27 07:54:45;;;;;;;11.57;8.88;;;;;;;16.30;98.83;101531.63;5036259;28;20079;-64
2023/09/27 07:57:11;;;;;;;10.00;8.73;;;;;;;16.35;99.22;101528.94;5044658;28;20104;-64
2023/09/27 07:59:36;;;;;;;15.70;9.32;;;;;;;16.42;99.15;101535.75;5030271;28;20540;-64
2023/09/27 08:02:01;;;;;;;13.45;8.98;;;;;;;16.46;99.30;101536.53;5028311;28;20045;-64
2023/09/27 08:04:27;;;;;;;11.57;8.80;;;;;;;16.43;98.31;101528.78;5036220;28;20029;-65
2023/09/27 08:06:52;;;;;;;11.90;10.05;;;;;;;16.38;98.75;101530.63;5032187;28;20036;-64
2023/09/27 08:09:21;;;;;;;15.02;8.77;;;;;;;16.32;99.12;101527.22;5029592;28;20021;-65
2023/09/27 08:11:47;;;;;;;13.00;8.80;;;;;;;16.28;99.03;101522.13;5032301;28;20641;-65
2023/09/27 08:14:15;;;;;;;14.85;9.07;;;;;;;16.28;99.49;101529.94;5031498;28;20029;-65
2023/09/27 08:16:41;;;;;;;10.52;9.00;;;;;;;16.33;99.56;101525.50;5033630;28;20029;-64
2023/09/27 08:19:06;;;;;;;12.80;8.80;;;;;;;16.38;99.88;101528.03;5030685;28;20036;-64
2023/09/27 08:21:32;;;;;;;15.20;9.57;;;;;;;16.39;99.24;101529.72;5037942;28;20445;-65
2023/09/27 08:23:57;;;;;;;14.63;9.00;;;;;;;16.43;98.95;101531.38;5030791;28;20041;-65
2023/09/27 08:26:22;;;;;;;15.95;9.55;;;;;;;16.45;99.18;101530.47;5032271;28;20041;-65
2023/09/27 08:28:48;;;;;;;14.38;9.55;;;;;;;16.39;98.63;101529.72;5028797;28;20025;-62
2023/09/27 08:31:13;;;;;;;13.82;10.20;;;;;;;16.41;98.68;101528.81;5036810;28;20037;-63
2023/09/27 08:33:38;;;;;;;15.35;10.20;;;;;;;16.41;98.87;101525.34;5034186;28;20765;-63
2023/09/27 08:36:04;;;;;;;12.82;9.32;;;;;;;16.45;99.04;101530.47;5032091;28;20560;-62
2023/09/27 08:38:30;;;;;;;11.48;9.30;;;;;;;16.53;98.73;101525.97;5035600;28;20091;-61
2023/09/27 08:40:55;;;;;;;14.50;9.30;;;;;;;16.67;98.48;101526.53;5029929;28;20037;-61
2023/09/27 08:43:22;;;;;;;13.30;8.48;;;;;;;16.76;97.37;101518.50;5032060;28;20063;-61
2023/09/27 08:45:51;;;;;;;11.77;8.68;;;;;;;16.88;97.26;101508.72;5029184;28;20502;-64
2023/09/27 08:48:22;;;;;;;10.88;8.02;;;;;;;17.06;96.53;101505.69;5034554;28;20413;-65
2023/09/27 08:50:49;;;;;;;12.85;8.30;;;;;;;17.17;94.25;101488.84;5036855;28;20475;-65
2023/09/27 08:53:15;;;;;;;10.15;8.25;;;;;;;17.33;94.02;101491.97;5032058;28;20040;-65
2023/09/27 08:55:45;;;;;;;14.40;8.35;;;;;;;17.35;93.15;101482.31;5037926;28;20072;-65
2023/09/27 08:58:13;;;;;;;9.90;8.20;;;;;;;17.55;93.56;101471.34;5035370;28;20044;-65
2023/09/27 09:00:41;;;;;;;10.18;8.02;;;;;;;17.67;92.43;101452.75;5034540;28;20502;-65
2023/09/27 09:03:06;;;;;;;13.27;7.72;;;;;;;17.82;91.97;101449.72;5033880;28;20049;-65
2023/09/27 09:05:33;;;;;;;13.10;7.47;;;;;;;17.96;91.29;101437.13;5037491;28;20045;-64
2023/09/27 09:08:00;;;;;;;8.43;6.63;;;;;;;18.11;90.39;101439.31;5032292;28;20069;-65
2023/09/27 09:10:27;;;;;;;12.93;6.18;;;;;;;18.27;89.34;101434.50;5038836;28;20037;-65
2023/09/27 09:12:52;;;;;;;10.27;6.95;;;;;;;18.40;88.48;101436.72;5032793;28;20033;-64
2023/09/27 09:15:40;;;;;;;10.02;5.93;;;;;;;18.50;87.50;101429.44;5039744;28;20028;-65
2023/09/27 09:18:10;;;;;;;11.52;6.05;;;;;;;18.65;87.33;101430.72;5032293;28;20045;-64
2023/09/27 09:20:51;;;;;;;7.03;5.70;;;;;;;18.72;85.38;101430.50;5038291;28;20052;-64
2023/09/27 09:23:33;;;;;;;11.23;5.60;;;;;;;18.79;85.31;101429.41;5033422;28;20048;-65
2023/09/27 09:26:11;;;;;;;8.90;5.80;;;;;;;18.91;86.25;101438.66;5030202;28;20109;-65
2023/09/27 09:28:57;;;;;;;10.27;5.47;;;;;;;19.06;85.30;101427.69;5038752;28;20046;-64
2023/09/27 09:31:27;;;;;;;7.35;5.88;;;;;;;19.18;83.38;101418.56;5021191;28;20047;-65
2023/09/27 09:34:03;;;;;;;9.32;5.30;;;;;;;19.29;83.10;101408.59;5026907;28;20061;-64
2023/09/27 09:36:29;;;;;;;8.65;5.20;;;;;;;19.38;83.08;101421.38;5030821;28;20074;-65
2023/09/27 09:39:05;;;;;;;7.72;5.25;;;;;;;19.42;82.32;101415.13;5032150;28;20029;-65
2023/09/27 09:41:47;;;;;;;8.32;5.13;;;;;;;19.47;81.14;101407.97;5030602;28;20045;-65
2023/09/27 09:44:24;;;;;;;8.43;5.00;;;;;;;19.51;81.67;101401.69;5033479;28;20036;-64
2023/09/27 09:46:51;;;;;;;7.00;5.10;;;;;;;19.53;82.03;101403.34;5026218;28;20069;-65
2023/09/27 09:49:17;;;;;;;8.93;5.00;;;;;;;19.60;81.90;101398.75;5038879;28;20045;-66
2023/09/27 09:51:48;;;;;;;11.40;5.25;;;;;;;19.67;82.27;101399.38;5035284;28;20241;-64
2023/09/27 09:54:41;;;;;;;10.27;5.40;;;;;;;19.76;81.54;101399.06;5038280;28;20033;-65
2023/09/27 09:57:07;;;;;;;8.95;4.97;;;;;;;19.78;81.69;101397.22;5033058;28;20538;-65
2023/09/27 09:59:48;;;;;;;10.35;4.80;;;;;;;19.91;80.21;101388.91;5029614;28;20159;-66
2023/09/27 10:02:20;;;;;;;6.38;4.40;;;;;;;20.03;80.66;101388.44;5035877;28;20044;-65
2023/09/27 10:04:47;;;;;;;6.35;3.92;;;;;;;20.07;81.07;101394.41;5033689;28;20136;-62
2023/09/27 10:07:17;;;;;;;5.90;4.43;;;;;;;20.10;81.03;101384.66;5040448;28;20120;-62
2023/09/27 10:09:43;;;;;;;7.65;4.18;;;;;;;20.22;78.92;101361.47;5036762;28;20033;-62
2023/09/27 10:12:11;;;;;;;4.68;3.80;;;;;;;20.29;77.82;101344.59;5033966;28;20380;-62
2023/09/27 10:14:37;;;;;;;10.35;3.70;;;;;;;20.49;77.46;101355.16;5034588;28;20029;-65
2023/09/27 10:17:02;;;;;;;5.55;4.00;;;;;;;20.68;76.64;101338.59;5026905;28;20038;-65
2023/09/27 10:19:28;;;;;;;5.88;3.30;;;;;;;20.88;74.45;101302.78;5032504;28;20029;-62
2023/09/27 10:22:04;;;;;;;5.65;2.90;;;;;;;21.08;73.47;101297.53;5038212;28;20035;-62
2023/09/27 10:24:29;;;;;;;7.05;3.40;;;;;;;21.15;73.93;101302.47;5030744;28;20383;-61
2023/09/27 10:26:54;;;;;;;10.52;3.33;;;;;;;21.32;73.02;101290.34;5033264;28;20039;-62
2023/09/27 10:29:21;;;;;;;5.80;3.35;;;;;;;21.33;73.81;101299.94;5030374;28;20030;-59
2023/09/27 10:32:01;;;;;;;5.55;3.58;;;;;;;21.41;74.29;101296.06;5034388;28;20041;-59
2023/09/27 10:34:29;;;;;;;10.43;3.70;;;;;;;21.54;73.35;101284.06;5029115;28;20496;-62
2023/09/27 10:36:55;;;;;;;6.03;3.05;;;;;;;21.57;72.27;101270.81;5032895;28;20057;-68
2023/09/27 10:39:21;;;;;;;5.93;3.42;;;;;;;21.64;70.56;101251.16;5033553;28;20079;-68
2023/09/27 10:41:50;;;;;;;6.68;3.55;;;;;;;21.73;71.46;101271.78;5026670;28;20038;-67
2023/09/27 10:44:28;;;;;;;4.93;3.58;;;;;;;21.93;70.69;101262.97;5035136;28;20522;-67
2023/09/27 10:46:53;;;;;;;6.25;2.95;;;;;;;21.97;70.27;101261.91;5026190;28;20045;-68
2023/09/27 10:49:20;;;;;;;6.20;2.70;;;;;;;22.10;68.49;101241.09;5043503;28;20033;-61
2023/09/27 10:51:45;;;;;;;6.30;3.42;;;;;;;22.36;68.10;101238.03;5038749;28;20036;-61
2023/09/27 10:54:10;;;;;;;3.97;2.92;;;;;;;22.61;66.11;101206.94;5042337;28;20334;-61
2023/09/27 10:56:40;;;;;;;6.40;2.78;;;;;;;22.67;65.14;101190.81;5032288;28;20072;-61
2023/09/27 10:59:07;;;;;;;4.40;2.20;;;;;;;22.77;63.02;101151.66;5037144;28;20535;-61
2023/09/27 11:01:33;;;;;;;4.07;2.65;;;;;;;22.84;62.17;101145.13;5034495;28;20063;-62
2023/09/27 11:04:01;;;;;;;4.60;2.58;;;;;;;22.97;61.49;101140.06;5030399;28;20131;-61
2023/09/27 11:06:28;;;;;;;4.13;2.67;;;;;;;23.21;61.90;101157.25;5040726;28;20022;-61
2023/09/27 11:09:23;;;;;;;3.03;2.38;;;;;;;23.26;60.81;101142.84;5034144;28;20044;-61
2023/09/27 11:11:51;;;;;;;4.32;2.35;;;;;;;23.42;59.25;101106.75;5010470;28;20598;-61